sensor_id;sensor_type;location;lat;lon;timestamp;P1;durP1;ratioP1;P2;durP2;ratioP2
6185;SDS011;3126;52.738;8.316;2023-10-08T00:03:24;1.83;;;1.02;;
6185;SDS011;3126;52.738;8.316;2023-10-08T00:08:29;1.90;;;1.48;;
6185;SDS011;3126;52.738;8.316;2023-10-08T00:13:30;1.75;;;1.65;;
6185;SDS011;3126;52.738;8.316;2023-10-08T00:18:31;1.90;;;1.75;;
6185;SDS011;3126;52.738;8.316;2023-10-08T00:23:33;1.52;;;1.42;;
6185;SDS011;3126;52.738;8.316;2023-10-08T00:28:35;1.90;;;1.80;;
6185;SDS011;3126;52.738;8.316;2023-10-08T00:33:36;1.55;;;1.40;;
6185;SDS011;3126;52.738;8.316;2023-10-08T00:38:37;1.25;;;1.10;;
6185;SDS011;3126;52.738;8.316;2023-10-08T00:43:44;2.95;;;1.55;;
6185;SDS011;3126;52.738;8.316;2023-10-08T00:48:45;0.75;;;0.75;;
6185;SDS011;3126;52.738;8.316;2023-10-08T00:53:57;0.35;;;0.35;;
6185;SDS011;3126;52.738;8.316;2023-10-08T00:58:59;0.63;;;0.63;;
6185;SDS011;3126;52.738;8.316;2023-10-08T01:04:01;0.50;;;0.50;;
6185;SDS011;3126;52.738;8.316;2023-10-08T01:09:09;0.95;;;0.95;;
6185;SDS011;3126;52.738;8.316;2023-10-08T01:14:21;1.25;;;1.15;;
6185;SDS011;3126;52.738;8.316;2023-10-08T01:19:31;1.17;;;1.10;;
6185;SDS011;3126;52.738;8.316;2023-10-08T01:24:34;2.17;;;1.30;;
6185;SDS011;3126;52.738;8.316;2023-10-08T01:29:36;1.63;;;1.52;;
6185;SDS011;3126;52.738;8.316;2023-10-08T01:34:37;2.58;;;1.80;;
6185;SDS011;3126;52.738;8.316;2023-10-08T01:39:39;2.35;;;2.05;;
6185;SDS011;3126;52.738;8.316;2023-10-08T01:49:47;4.05;;;2.53;;
6185;SDS011;3126;52.738;8.316;2023-10-08T01:54:49;2.90;;;2.20;;
6185;SDS011;3126;52.738;8.316;2023-10-08T01:59:53;4.13;;;1.92;;
6185;SDS011;3126;52.738;8.316;2023-10-08T02:04:54;3.97;;;2.45;;
6185;SDS011;3126;52.738;8.316;2023-10-08T02:09:55;3.53;;;2.65;;
6185;SDS011;3126;52.738;8.316;2023-10-08T02:14:57;2.78;;;2.05;;
6185;SDS011;3126;52.738;8.316;2023-10-08T02:19:58;3.67;;;2.83;;
6185;SDS011;3126;52.738;8.316;2023-10-08T02:24:59;4.03;;;2.80;;
6185;SDS011;3126;52.738;8.316;2023-10-08T02:30:03;5.45;;;3.20;;
6185;SDS011;3126;52.738;8.316;2023-10-08T02:35:06;5.10;;;2.53;;
6185;SDS011;3126;52.738;8.316;2023-10-08T02:40:10;2.88;;;2.30;;
6185;SDS011;3126;52.738;8.316;2023-10-08T02:45:29;6.18;;;3.00;;
6185;SDS011;3126;52.738;8.316;2023-10-08T02:50:30;5.68;;;3.30;;
6185;SDS011;3126;52.738;8.316;2023-10-08T02:55:32;6.03;;;3.33;;
6185;SDS011;3126;52.738;8.316;2023-10-08T03:00:37;6.70;;;2.78;;
6185;SDS011;3126;52.738;8.316;2023-10-08T03:05:50;5.75;;;2.90;;
6185;SDS011;3126;52.738;8.316;2023-10-08T03:10:52;6.20;;;3.38;;
6185;SDS011;3126;52.738;8.316;2023-10-08T03:16:02;5.93;;;4.22;;
6185;SDS011;3126;52.738;8.316;2023-10-08T03:21:03;8.35;;;4.28;;
6185;SDS011;3126;52.738;8.316;2023-10-08T03:26:05;7.35;;;4.50;;
6185;SDS011;3126;52.738;8.316;2023-10-08T03:31:24;5.93;;;4.00;;
6185;SDS011;3126;52.738;8.316;2023-10-08T03:36:48;7.28;;;4.57;;
6185;SDS011;3126;52.738;8.316;2023-10-08T03:41:50;7.47;;;4.20;;
6185;SDS011;3126;52.738;8.316;2023-10-08T03:47:07;9.13;;;4.15;;
6185;SDS011;3126;52.738;8.316;2023-10-08T03:52:11;8.35;;;4.22;;
6185;SDS011;3126;52.738;8.316;2023-10-08T03:57:15;6.15;;;3.88;;
6185;SDS011;3126;52.738;8.316;2023-10-08T04:02:25;8.10;;;4.22;;
6185;SDS011;3126;52.738;8.316;2023-10-08T04:07:40;10.13;;;5.30;;
6185;SDS011;3126;52.738;8.316;2023-10-08T04:13:00;8.30;;;4.18;;
6185;SDS011;3126;52.738;8.316;2023-10-08T04:18:01;8.63;;;4.63;;
6185;SDS011;3126;52.738;8.316;2023-10-08T04:23:03;10.80;;;5.57;;
6185;SDS011;3126;52.738;8.316;2023-10-08T04:28:04;13.45;;;4.90;;
6185;SDS011;3126;52.738;8.316;2023-10-08T04:33:07;9.35;;;5.22;;
6185;SDS011;3126;52.738;8.316;2023-10-08T04:38:12;10.45;;;5.05;;
6185;SDS011;3126;52.738;8.316;2023-10-08T04:43:16;9.75;;;5.80;;
6185;SDS011;3126;52.738;8.316;2023-10-08T04:48:30;14.63;;;5.88;;
6185;SDS011;3126;52.738;8.316;2023-10-08T04:53:36;13.15;;;6.78;;
6185;SDS011;3126;52.738;8.316;2023-10-08T04:58:40;12.85;;;6.68;;
6185;SDS011;3126;52.738;8.316;2023-10-08T05:03:46;12.77;;;6.00;;
6185;SDS011;3126;52.738;8.316;2023-10-08T05:09:14;15.65;;;6.15;;
6185;SDS011;3126;52.738;8.316;2023-10-08T05:14:19;16.85;;;6.45;;
6185;SDS011;3126;52.738;8.316;2023-10-08T05:19:32;13.13;;;6.00;;
6185;SDS011;3126;52.738;8.316;2023-10-08T05:24:52;13.95;;;5.90;;
6185;SDS011;3126;52.738;8.316;2023-10-08T05:30:31;13.82;;;6.72;;
6185;SDS011;3126;52.738;8.316;2023-10-08T05:35:39;14.30;;;6.32;;
6185;SDS011;3126;52.738;8.316;2023-10-08T05:40:42;12.45;;;6.05;;
6185;SDS011;3126;52.738;8.316;2023-10-08T05:45:58;12.30;;;6.25;;
6185;SDS011;3126;52.738;8.316;2023-10-08T05:51:19;12.98;;;5.88;;
6185;SDS011;3126;52.738;8.316;2023-10-08T05:56:44;11.45;;;5.32;;
6185;SDS011;3126;52.738;8.316;2023-10-08T06:02:05;11.77;;;5.68;;
6185;SDS011;3126;52.738;8.316;2023-10-08T06:07:26;12.73;;;6.00;;
6185;SDS011;3126;52.738;8.316;2023-10-08T06:12:47;13.90;;;5.68;;
6185;SDS011;3126;52.738;8.316;2023-10-08T06:18:00;13.45;;;5.28;;
6185;SDS011;3126;52.738;8.316;2023-10-08T06:23:05;12.02;;;5.75;;
6185;SDS011;3126;52.738;8.316;2023-10-08T06:28:07;11.48;;;5.43;;
6185;SDS011;3126;52.738;8.316;2023-10-08T06:33:09;10.45;;;5.15;;
6185;SDS011;3126;52.738;8.316;2023-10-08T06:38:11;11.93;;;5.70;;
6185;SDS011;3126;52.738;8.316;2023-10-08T06:43:15;10.30;;;5.60;;
6185;SDS011;3126;52.738;8.316;2023-10-08T06:48:16;14.32;;;6.30;;
6185;SDS011;3126;52.738;8.316;2023-10-08T06:53:20;12.73;;;6.53;;
6185;SDS011;3126;52.738;8.316;2023-10-08T06:58:22;9.93;;;5.32;;
6185;SDS011;3126;52.738;8.316;2023-10-08T07:03:24;13.98;;;5.60;;
6185;SDS011;3126;52.738;8.316;2023-10-08T07:08:26;10.43;;;5.55;;
6185;SDS011;3126;52.738;8.316;2023-10-08T07:13:29;12.02;;;5.85;;
6185;SDS011;3126;52.738;8.316;2023-10-08T07:18:30;12.65;;;6.88;;
6185;SDS011;3126;52.738;8.316;2023-10-08T07:23:33;11.45;;;5.57;;
6185;SDS011;3126;52.738;8.316;2023-10-08T07:28:34;12.02;;;5.50;;
6185;SDS011;3126;52.738;8.316;2023-10-08T07:33:36;9.70;;;5.88;;
6185;SDS011;3126;52.738;8.316;2023-10-08T07:38:40;12.55;;;5.30;;
6185;SDS011;3126;52.738;8.316;2023-10-08T07:43:44;10.70;;;5.13;;
6185;SDS011;3126;52.738;8.316;2023-10-08T07:48:58;9.30;;;4.88;;
6185;SDS011;3126;52.738;8.316;2023-10-08T07:53:59;10.18;;;4.93;;
6185;SDS011;3126;52.738;8.316;2023-10-08T07:59:01;7.07;;;4.03;;
6185;SDS011;3126;52.738;8.316;2023-10-08T08:04:13;8.00;;;4.18;;
6185;SDS011;3126;52.738;8.316;2023-10-08T08:09:22;7.07;;;4.10;;
6185;SDS011;3126;52.738;8.316;2023-10-08T08:14:23;9.63;;;4.10;;
6185;SDS011;3126;52.738;8.316;2023-10-08T08:19:24;5.82;;;3.42;;
6185;SDS011;3126;52.738;8.316;2023-10-08T08:24:25;6.75;;;3.20;;
6185;SDS011;3126;52.738;8.316;2023-10-08T08:29:35;10.05;;;4.00;;
6185;SDS011;3126;52.738;8.316;2023-10-08T08:34:55;7.75;;;3.28;;
6185;SDS011;3126;52.738;8.316;2023-10-08T08:39:58;7.78;;;3.35;;
6185;SDS011;3126;52.738;8.316;2023-10-08T08:44:59;11.13;;;3.53;;
6185;SDS011;3126;52.738;8.316;2023-10-08T08:50:03;9.73;;;3.53;;
6185;SDS011;3126;52.738;8.316;2023-10-08T08:55:08;7.05;;;3.00;;
6185;SDS011;3126;52.738;8.316;2023-10-08T09:00:15;7.03;;;3.13;;
6185;SDS011;3126;52.738;8.316;2023-10-08T09:05:16;4.43;;;2.83;;
6185;SDS011;3126;52.738;8.316;2023-10-08T09:10:26;6.43;;;2.38;;
6185;SDS011;3126;52.738;8.316;2023-10-08T09:15:28;4.43;;;1.98;;
6185;SDS011;3126;52.738;8.316;2023-10-08T09:20:29;4.45;;;1.80;;
6185;SDS011;3126;52.738;8.316;2023-10-08T09:25:31;6.65;;;2.33;;
6185;SDS011;3126;52.738;8.316;2023-10-08T09:30:32;9.35;;;2.42;;
6185;SDS011;3126;52.738;8.316;2023-10-08T09:35:37;5.57;;;2.53;;
6185;SDS011;3126;52.738;8.316;2023-10-08T09:40:39;5.55;;;2.47;;
6185;SDS011;3126;52.738;8.316;2023-10-08T09:45:47;8.57;;;2.05;;
6185;SDS011;3126;52.738;8.316;2023-10-08T09:50:50;6.43;;;1.77;;
6185;SDS011;3126;52.738;8.316;2023-10-08T09:55:53;4.72;;;2.33;;
6185;SDS011;3126;52.738;8.316;2023-10-08T10:00:55;6.10;;;2.00;;
6185;SDS011;3126;52.738;8.316;2023-10-08T10:05:57;7.80;;;1.92;;
6185;SDS011;3126;52.738;8.316;2023-10-08T10:11:00;5.93;;;2.03;;
6185;SDS011;3126;52.738;8.316;2023-10-08T10:16:01;6.22;;;1.48;;
6185;SDS011;3126;52.738;8.316;2023-10-08T10:26:31;6.57;;;1.23;;
6185;SDS011;3126;52.738;8.316;2023-10-08T10:31:33;7.60;;;1.40;;
6185;SDS011;3126;52.738;8.316;2023-10-08T10:36:35;4.28;;;1.35;;
6185;SDS011;3126;52.738;8.316;2023-10-08T10:41:36;5.45;;;1.63;;
6185;SDS011;3126;52.738;8.316;2023-10-08T10:46:37;3.63;;;1.13;;
6185;SDS011;3126;52.738;8.316;2023-10-08T10:51:41;7.70;;;2.90;;
6185;SDS011;3126;52.738;8.316;2023-10-08T10:56:42;7.32;;;1.20;;
6185;SDS011;3126;52.738;8.316;2023-10-08T11:01:45;5.90;;;1.23;;
6185;SDS011;3126;52.738;8.316;2023-10-08T11:06:49;6.38;;;1.60;;
6185;SDS011;3126;52.738;8.316;2023-10-08T11:11:51;3.78;;;1.20;;
6185;SDS011;3126;52.738;8.316;2023-10-08T11:16:55;7.78;;;1.23;;
6185;SDS011;3126;52.738;8.316;2023-10-08T11:21:56;3.42;;;1.48;;
6185;SDS011;3126;52.738;8.316;2023-10-08T11:26:57;7.07;;;1.48;;
6185;SDS011;3126;52.738;8.316;2023-10-08T11:32:16;8.98;;;1.67;;
6185;SDS011;3126;52.738;8.316;2023-10-08T11:37:30;4.53;;;1.58;;
6185;SDS011;3126;52.738;8.316;2023-10-08T11:42:33;8.43;;;1.73;;
6185;SDS011;3126;52.738;8.316;2023-10-08T11:47:34;6.28;;;1.90;;
6185;SDS011;3126;52.738;8.316;2023-10-08T11:52:38;5.93;;;1.70;;
6185;SDS011;3126;52.738;8.316;2023-10-08T11:57:41;6.53;;;1.88;;
6185;SDS011;3126;52.738;8.316;2023-10-08T12:02:49;5.07;;;1.55;;
6185;SDS011;3126;52.738;8.316;2023-10-08T12:07:53;5.80;;;1.95;;
6185;SDS011;3126;52.738;8.316;2023-10-08T12:12:57;7.55;;;1.70;;
6185;SDS011;3126;52.738;8.316;2023-10-08T12:17:59;6.68;;;2.35;;
6185;SDS011;3126;52.738;8.316;2023-10-08T12:23:24;5.72;;;1.80;;
6185;SDS011;3126;52.738;8.316;2023-10-08T12:28:25;3.80;;;2.05;;
6185;SDS011;3126;52.738;8.316;2023-10-08T12:33:30;3.55;;;1.40;;
6185;SDS011;3126;52.738;8.316;2023-10-08T12:38:31;6.93;;;2.00;;
6185;SDS011;3126;52.738;8.316;2023-10-08T12:43:32;4.95;;;1.70;;
6185;SDS011;3126;52.738;8.316;2023-10-08T12:48:38;6.97;;;2.55;;
6185;SDS011;3126;52.738;8.316;2023-10-08T12:53:39;8.77;;;2.45;;
6185;SDS011;3126;52.738;8.316;2023-10-08T12:58:41;7.75;;;2.35;;
6185;SDS011;3126;52.738;8.316;2023-10-08T13:03:48;7.70;;;1.88;;
6185;SDS011;3126;52.738;8.316;2023-10-08T13:08:49;4.78;;;2.17;;
6185;SDS011;3126;52.738;8.316;2023-10-08T13:13:53;5.97;;;1.98;;
6185;SDS011;3126;52.738;8.316;2023-10-08T13:18:56;5.40;;;1.92;;
6185;SDS011;3126;52.738;8.316;2023-10-08T13:23:58;7.85;;;1.52;;
6185;SDS011;3126;52.738;8.316;2023-10-08T13:29:00;2.92;;;1.70;;
6185;SDS011;3126;52.738;8.316;2023-10-08T13:34:01;5.43;;;2.08;;
6185;SDS011;3126;52.738;8.316;2023-10-08T13:39:05;5.45;;;1.67;;
6185;SDS011;3126;52.738;8.316;2023-10-08T13:44:09;5.38;;;1.63;;
6185;SDS011;3126;52.738;8.316;2023-10-08T13:49:12;5.68;;;1.80;;
6185;SDS011;3126;52.738;8.316;2023-10-08T13:54:16;3.83;;;1.33;;
6185;SDS011;3126;52.738;8.316;2023-10-08T13:59:20;6.75;;;1.83;;
6185;SDS011;3126;52.738;8.316;2023-10-08T14:04:24;4.65;;;1.92;;
6185;SDS011;3126;52.738;8.316;2023-10-08T14:09:30;4.68;;;1.50;;
6185;SDS011;3126;52.738;8.316;2023-10-08T14:14:31;6.85;;;2.28;;
6185;SDS011;3126;52.738;8.316;2023-10-08T14:19:37;4.10;;;1.70;;
6185;SDS011;3126;52.738;8.316;2023-10-08T14:24:51;8.93;;;1.80;;
6185;SDS011;3126;52.738;8.316;2023-10-08T14:29:58;6.97;;;1.73;;
6185;SDS011;3126;52.738;8.316;2023-10-08T14:35:04;7.32;;;1.80;;
6185;SDS011;3126;52.738;8.316;2023-10-08T14:40:25;5.22;;;2.15;;
6185;SDS011;3126;52.738;8.316;2023-10-08T14:45:45;4.57;;;1.92;;
6185;SDS011;3126;52.738;8.316;2023-10-08T14:50:47;5.28;;;1.85;;
6185;SDS011;3126;52.738;8.316;2023-10-08T14:55:49;2.42;;;1.30;;
6185;SDS011;3126;52.738;8.316;2023-10-08T15:00:50;8.63;;;1.73;;
6185;SDS011;3126;52.738;8.316;2023-10-08T15:05:54;2.92;;;1.13;;
6185;SDS011;3126;52.738;8.316;2023-10-08T15:10:55;5.38;;;1.48;;
6185;SDS011;3126;52.738;8.316;2023-10-08T15:15:56;3.60;;;1.40;;
6185;SDS011;3126;52.738;8.316;2023-10-08T15:20:59;3.35;;;1.27;;
6185;SDS011;3126;52.738;8.316;2023-10-08T15:26:00;3.63;;;1.85;;
6185;SDS011;3126;52.738;8.316;2023-10-08T15:31:01;4.13;;;1.70;;
6185;SDS011;3126;52.738;8.316;2023-10-08T15:36:02;3.95;;;1.40;;
6185;SDS011;3126;52.738;8.316;2023-10-08T15:41:04;5.32;;;2.35;;
6185;SDS011;3126;52.738;8.316;2023-10-08T15:46:05;4.40;;;1.77;;
6185;SDS011;3126;52.738;8.316;2023-10-08T15:51:06;2.15;;;1.35;;
6185;SDS011;3126;52.738;8.316;2023-10-08T15:56:07;4.22;;;1.50;;
6185;SDS011;3126;52.738;8.316;2023-10-08T16:01:08;3.97;;;2.00;;
6185;SDS011;3126;52.738;8.316;2023-10-08T16:06:11;5.32;;;2.63;;
6185;SDS011;3126;52.738;8.316;2023-10-08T16:11:13;5.88;;;1.80;;
6185;SDS011;3126;52.738;8.316;2023-10-08T16:16:14;6.35;;;2.25;;
6185;SDS011;3126;52.738;8.316;2023-10-08T16:21:15;4.95;;;1.75;;
6185;SDS011;3126;52.738;8.316;2023-10-08T16:26:20;4.55;;;1.77;;
6185;SDS011;3126;52.738;8.316;2023-10-08T16:31:21;4.45;;;1.42;;
6185;SDS011;3126;52.738;8.316;2023-10-08T16:36:22;3.45;;;1.20;;
6185;SDS011;3126;52.738;8.316;2023-10-08T16:41:23;5.18;;;1.58;;
6185;SDS011;3126;52.738;8.316;2023-10-08T16:46:24;3.17;;;1.35;;
6185;SDS011;3126;52.738;8.316;2023-10-08T16:51:25;7.20;;;3.35;;
6185;SDS011;3126;52.738;8.316;2023-10-08T16:56:27;5.28;;;2.50;;
6185;SDS011;3126;52.738;8.316;2023-10-08T17:01:28;3.40;;;2.10;;
6185;SDS011;3126;52.738;8.316;2023-10-08T17:06:29;5.43;;;2.10;;
6185;SDS011;3126;52.738;8.316;2023-10-08T17:11:30;3.90;;;2.00;;
6185;SDS011;3126;52.738;8.316;2023-10-08T17:16:35;7.03;;;3.83;;
6185;SDS011;3126;52.738;8.316;2023-10-08T17:21:37;3.85;;;2.15;;
6185;SDS011;3126;52.738;8.316;2023-10-08T17:26:38;7.80;;;2.53;;
6185;SDS011;3126;52.738;8.316;2023-10-08T17:31:40;3.55;;;2.33;;
6185;SDS011;3126;52.738;8.316;2023-10-08T17:36:41;6.38;;;1.70;;
6185;SDS011;3126;52.738;8.316;2023-10-08T17:41:43;6.32;;;1.67;;
6185;SDS011;3126;52.738;8.316;2023-10-08T17:46:49;3.35;;;1.45;;
6185;SDS011;3126;52.738;8.316;2023-10-08T17:51:51;4.25;;;1.85;;
6185;SDS011;3126;52.738;8.316;2023-10-08T17:56:52;5.22;;;2.28;;
6185;SDS011;3126;52.738;8.316;2023-10-08T18:01:53;4.55;;;1.80;;
6185;SDS011;3126;52.738;8.316;2023-10-08T18:06:54;5.28;;;1.83;;
6185;SDS011;3126;52.738;8.316;2023-10-08T18:11:55;6.03;;;2.05;;
6185;SDS011;3126;52.738;8.316;2023-10-08T18:16:57;7.03;;;3.08;;
6185;SDS011;3126;52.738;8.316;2023-10-08T18:21:59;2.50;;;2.05;;
6185;SDS011;3126;52.738;8.316;2023-10-08T18:27:00;6.38;;;2.60;;
6185;SDS011;3126;52.738;8.316;2023-10-08T18:32:01;5.15;;;2.35;;
6185;SDS011;3126;52.738;8.316;2023-10-08T18:37:05;4.60;;;1.65;;
6185;SDS011;3126;52.738;8.316;2023-10-08T18:42:06;4.20;;;2.20;;
6185;SDS011;3126;52.738;8.316;2023-10-08T18:47:08;3.45;;;2.10;;
6185;SDS011;3126;52.738;8.316;2023-10-08T18:52:09;5.68;;;2.42;;
6185;SDS011;3126;52.738;8.316;2023-10-08T18:57:12;3.33;;;2.13;;
6185;SDS011;3126;52.738;8.316;2023-10-08T19:02:12;4.05;;;2.13;;
6185;SDS011;3126;52.738;8.316;2023-10-08T19:07:14;3.85;;;2.03;;
6185;SDS011;3126;52.738;8.316;2023-10-08T19:12:14;3.22;;;2.10;;
6185;SDS011;3126;52.738;8.316;2023-10-08T19:17:16;4.90;;;2.03;;
6185;SDS011;3126;52.738;8.316;2023-10-08T19:22:17;4.03;;;1.77;;
6185;SDS011;3126;52.738;8.316;2023-10-08T19:27:18;7.60;;;1.98;;
6185;SDS011;3126;52.738;8.316;2023-10-08T19:32:19;5.40;;;2.17;;
6185;SDS011;3126;52.738;8.316;2023-10-08T19:37:20;5.88;;;2.13;;
6185;SDS011;3126;52.738;8.316;2023-10-08T19:42:22;4.30;;;2.50;;
6185;SDS011;3126;52.738;8.316;2023-10-08T19:47:27;4.30;;;2.40;;
6185;SDS011;3126;52.738;8.316;2023-10-08T19:52:30;5.03;;;2.13;;
6185;SDS011;3126;52.738;8.316;2023-10-08T19:57:32;6.18;;;2.25;;
6185;SDS011;3126;52.738;8.316;2023-10-08T20:02:33;6.68;;;2.80;;
6185;SDS011;3126;52.738;8.316;2023-10-08T20:07:35;4.78;;;1.92;;
6185;SDS011;3126;52.738;8.316;2023-10-08T20:12:36;6.35;;;2.30;;
6185;SDS011;3126;52.738;8.316;2023-10-08T20:17:39;2.95;;;2.10;;
6185;SDS011;3126;52.738;8.316;2023-10-08T20:22:41;3.60;;;2.28;;
6185;SDS011;3126;52.738;8.316;2023-10-08T20:27:42;4.20;;;2.72;;
6185;SDS011;3126;52.738;8.316;2023-10-08T20:32:43;6.63;;;3.63;;
6185;SDS011;3126;52.738;8.316;2023-10-08T20:37:48;5.85;;;2.55;;
6185;SDS011;3126;52.738;8.316;2023-10-08T20:42:54;4.18;;;2.55;;
6185;SDS011;3126;52.738;8.316;2023-10-08T20:47:56;5.53;;;2.95;;
6185;SDS011;3126;52.738;8.316;2023-10-08T20:52:57;5.95;;;3.00;;
6185;SDS011;3126;52.738;8.316;2023-10-08T20:58:00;4.53;;;2.42;;
6185;SDS011;3126;52.738;8.316;2023-10-08T21:03:02;7.22;;;3.28;;
6185;SDS011;3126;52.738;8.316;2023-10-08T21:08:05;5.43;;;2.88;;
6185;SDS011;3126;52.738;8.316;2023-10-08T21:13:06;7.43;;;3.28;;
6185;SDS011;3126;52.738;8.316;2023-10-08T21:18:07;3.78;;;2.70;;
6185;SDS011;3126;52.738;8.316;2023-10-08T21:23:08;4.55;;;2.60;;
6185;SDS011;3126;52.738;8.316;2023-10-08T21:28:09;5.80;;;3.03;;
6185;SDS011;3126;52.738;8.316;2023-10-08T21:33:10;5.75;;;3.00;;
6185;SDS011;3126;52.738;8.316;2023-10-08T21:38:11;6.32;;;3.20;;
6185;SDS011;3126;52.738;8.316;2023-10-08T21:43:11;7.93;;;3.05;;
6185;SDS011;3126;52.738;8.316;2023-10-08T21:48:12;4.93;;;2.63;;
6185;SDS011;3126;52.738;8.316;2023-10-08T21:53:13;3.97;;;2.95;;
6185;SDS011;3126;52.738;8.316;2023-10-08T21:58:14;5.30;;;2.70;;
6185;SDS011;3126;52.738;8.316;2023-10-08T22:03:15;6.20;;;2.50;;
6185;SDS011;3126;52.738;8.316;2023-10-08T22:08:16;5.95;;;2.72;;
6185;SDS011;3126;52.738;8.316;2023-10-08T22:13:22;4.55;;;2.50;;
6185;SDS011;3126;52.738;8.316;2023-10-08T22:18:25;4.68;;;2.13;;
6185;SDS011;3126;52.738;8.316;2023-10-08T22:23:29;4.93;;;2.60;;
6185;SDS011;3126;52.738;8.316;2023-10-08T22:28:30;5.57;;;2.78;;
6185;SDS011;3126;52.738;8.316;2023-10-08T22:33:35;5.93;;;3.08;;
6185;SDS011;3126;52.738;8.316;2023-10-08T22:38:39;6.50;;;3.08;;
6185;SDS011;3126;52.738;8.316;2023-10-08T22:43:42;4.18;;;2.35;;
6185;SDS011;3126;52.738;8.316;2023-10-08T22:48:43;7.35;;;2.75;;
6185;SDS011;3126;52.738;8.316;2023-10-08T22:53:44;6.95;;;2.70;;
6185;SDS011;3126;52.738;8.316;2023-10-08T22:58:46;3.92;;;2.53;;
6185;SDS011;3126;52.738;8.316;2023-10-08T23:03:48;4.40;;;2.22;;
6185;SDS011;3126;52.738;8.316;2023-10-08T23:08:52;4.30;;;2.47;;
6185;SDS011;3126;52.738;8.316;2023-10-08T23:13:55;3.58;;;2.15;;
6185;SDS011;3126;52.738;8.316;2023-10-08T23:19:02;5.00;;;2.28;;
6185;SDS011;3126;52.738;8.316;2023-10-08T23:24:04;4.28;;;2.60;;
6185;SDS011;3126;52.738;8.316;2023-10-08T23:29:07;3.67;;;2.53;;
6185;SDS011;3126;52.738;8.316;2023-10-08T23:34:08;6.40;;;2.47;;
6185;SDS011;3126;52.738;8.316;2023-10-08T23:39:13;4.55;;;2.40;;
6185;SDS011;3126;52.738;8.316;2023-10-08T23:44:15;4.47;;;2.28;;
6185;SDS011;3126;52.738;8.316;2023-10-08T23:49:18;3.22;;;2.08;;
6185;SDS011;3126;52.738;8.316;2023-10-08T23:54:21;4.22;;;1.92;;
6185;SDS011;3126;52.738;8.316;2023-10-08T23:59:33;3.85;;;2.10;;
